createdAt,value
2023-01-25T00:01:50.443Z,57.70
2023-01-25T00:04:20.358Z,61.40
2023-01-25T00:06:49.648Z,60.53
2023-01-25T00:09:18.842Z,60.50
2023-01-25T00:11:47.961Z,60.67
2023-01-25T00:14:17.400Z,53.63
2023-01-25T00:16:46.291Z,57.43
2023-01-25T00:19:14.831Z,64.37
2023-01-25T00:21:44.946Z,60.93
2023-01-25T00:24:14.513Z,62.50
2023-01-25T00:26:44.838Z,59.80
2023-01-25T00:29:14.404Z,60.23
2023-01-25T00:31:51.611Z,66.43
2023-01-25T00:34:47.984Z,65.10
2023-01-25T00:37:29.400Z,64.93
2023-01-25T00:39:59.073Z,68.33
2023-01-25T00:42:27.698Z,61.67
2023-01-25T00:44:56.063Z,67.20
2023-01-25T00:47:24.927Z,64.10
2023-01-25T00:49:53.434Z,67.10
2023-01-25T00:52:23.692Z,59.40
2023-01-25T00:54:52.033Z,67.37
2023-01-25T00:57:20.692Z,68.70
2023-01-25T00:59:49.373Z,60.77
2023-01-25T01:02:18.349Z,69.57
2023-01-25T01:04:47.060Z,73.53
2023-01-25T01:07:16.535Z,58.30
2023-01-25T01:09:46.427Z,74.30
2023-01-25T01:12:15.531Z,72.43
2023-01-25T01:14:44.429Z,72.90
2023-01-25T01:17:13.218Z,69.63
2023-01-25T01:19:41.546Z,70.10
2023-01-25T01:22:10.297Z,69.90
2023-01-25T01:24:39.184Z,69.90
2023-01-25T01:27:09.298Z,67.47
2023-01-25T01:29:38.072Z,64.73
2023-01-25T01:32:07.629Z,67.90
2023-01-25T01:34:36.505Z,66.50
2023-01-25T01:37:05.274Z,70.43
2023-01-25T01:39:33.864Z,62.53
2023-01-25T01:42:02.523Z,54.93
2023-01-25T01:44:49.534Z,45.73
2023-01-25T01:47:23.405Z,46.73
2023-01-25T01:49:58.993Z,43.10
2023-01-25T01:52:32.479Z,44.70
2023-01-25T01:55:05.328Z,41.57
2023-01-25T01:57:39.185Z,46.20
2023-01-25T02:00:14.646Z,40.87
2023-01-25T02:02:45.024Z,34.73
2023-01-25T02:05:19.387Z,28.63
2023-01-25T02:07:51.910Z,35.93
2023-01-25T02:10:23.035Z,35.23
2023-01-25T02:12:54.341Z,38.10
2023-01-25T02:15:24.348Z,38.73
2023-01-25T02:17:53.139Z,34.67
2023-01-25T02:20:30.141Z,33.90
2023-01-25T02:23:04.695Z,32.63
2023-01-25T02:25:34.849Z,35.63
2023-01-25T02:28:09.788Z,34.07
2023-01-25T02:30:38.268Z,32.17
2023-01-25T02:33:06.848Z,28.80
2023-01-25T02:35:43.001Z,31.83
2023-01-25T02:38:14.924Z,32.30
2023-01-25T02:40:48.696Z,30.47
2023-01-25T02:43:18.592Z,33.53
2023-01-25T02:45:53.528Z,27.07
2023-01-25T02:48:22.632Z,30.73
2023-01-25T02:50:51.911Z,36.97
2023-01-25T02:53:20.634Z,32.50
2023-01-25T02:55:50.396Z,29.93
2023-01-25T02:58:19.490Z,34.70
2023-01-25T03:00:47.861Z,31.03
2023-01-25T03:03:16.780Z,26.43
2023-01-25T03:05:46.701Z,36.27
2023-01-25T03:08:15.541Z,33.80
2023-01-25T03:10:44.362Z,34.87
2023-01-25T03:13:14.600Z,39.13
2023-01-25T03:15:43.577Z,36.47
2023-01-25T03:18:12.348Z,33.07
2023-01-25T03:20:40.708Z,33.77
2023-01-25T03:23:09.943Z,39.00
2023-01-25T03:25:39.590Z,31.30
2023-01-25T03:28:17.161Z,33.30
2023-01-25T03:30:54.192Z,36.00
2023-01-25T03:33:23.213Z,34.60
2023-01-25T03:35:53.716Z,35.00
2023-01-25T03:38:23.148Z,32.77
2023-01-25T03:40:51.582Z,36.43
2023-01-25T03:43:22.469Z,36.80
2023-01-25T03:45:57.402Z,38.13
2023-01-25T03:48:27.030Z,30.53
2023-01-25T03:50:57.613Z,35.70
2023-01-25T03:53:29.545Z,42.77
2023-01-25T03:56:07.821Z,40.17
2023-01-25T03:58:40.059Z,40.07
2023-01-25T04:01:10.558Z,33.23
2023-01-25T04:03:40.301Z,40.03
2023-01-25T04:06:09.951Z,46.30
2023-01-25T04:08:40.073Z,38.60
2023-01-25T04:11:10.443Z,43.57
2023-01-25T04:13:41.164Z,45.47
2023-01-25T04:16:12.797Z,40.87
2023-01-25T04:19:00.041Z,38.57
2023-01-25T04:21:30.184Z,41.23
2023-01-25T04:23:59.421Z,40.93
2023-01-25T04:26:27.861Z,35.60
2023-01-25T04:29:01.884Z,42.37
2023-01-25T04:31:30.481Z,46.07
2023-01-25T04:34:00.166Z,46.40
2023-01-25T04:36:29.341Z,42.87
2023-01-25T04:38:58.029Z,44.67
2023-01-25T04:41:29.201Z,40.03
2023-01-25T04:43:58.459Z,39.87
2023-01-25T04:46:28.753Z,42.47
2023-01-25T04:48:58.252Z,42.67
2023-01-25T04:51:26.845Z,39.67
2023-01-25T04:53:55.640Z,46.73
2023-01-25T04:56:24.607Z,38.23
2023-01-25T04:58:56.010Z,40.10
2023-01-25T05:01:24.525Z,39.93
2023-01-25T05:03:55.621Z,38.33
2023-01-25T05:06:38.994Z,42.83
2023-01-25T05:09:07.995Z,37.33
2023-01-25T05:11:36.999Z,39.07
2023-01-25T05:14:25.801Z,43.23
2023-01-25T05:16:54.447Z,33.17
2023-01-25T05:19:25.327Z,37.37
2023-01-25T05:21:59.640Z,37.70
2023-01-25T05:24:59.244Z,41.10
2023-01-25T05:27:26.907Z,36.43
2023-01-25T05:29:56.364Z,33.43
2023-01-25T05:32:32.506Z,36.67
2023-01-25T05:35:02.946Z,41.27
2023-01-25T05:37:31.627Z,30.97
2023-01-25T05:40:05.138Z,29.40
2023-01-25T05:42:38.271Z,31.77
2023-01-25T05:45:12.162Z,32.30
2023-01-25T05:47:41.672Z,29.70
2023-01-25T05:50:12.936Z,28.43
2023-01-25T05:52:57.187Z,38.53
2023-01-25T05:55:26.227Z,30.80
2023-01-25T05:57:56.924Z,30.33
2023-01-25T06:00:26.002Z,38.33
2023-01-25T06:02:56.897Z,36.70
2023-01-25T06:05:28.329Z,31.00
2023-01-25T06:07:56.691Z,29.57
2023-01-25T06:10:27.798Z,30.00
2023-01-25T06:12:59.265Z,29.37
2023-01-25T06:15:28.432Z,26.20
2023-01-25T06:18:09.451Z,30.20
2023-01-25T06:20:49.745Z,34.73
2023-01-25T06:23:18.529Z,27.63
2023-01-25T06:25:47.266Z,32.00
2023-01-25T06:28:15.616Z,28.33
2023-01-25T06:30:44.357Z,24.50
2023-01-25T06:33:12.789Z,28.10
2023-01-25T06:35:42.593Z,23.80
2023-01-25T06:38:12.297Z,26.90
2023-01-25T06:40:40.882Z,27.07
2023-01-25T06:43:12.828Z,26.93
2023-01-25T06:45:41.798Z,31.00
2023-01-25T06:48:12.242Z,27.70
2023-01-25T06:50:41.646Z,34.67
2023-01-25T06:53:11.337Z,27.10
2023-01-25T06:55:40.029Z,27.53
2023-01-25T06:58:08.414Z,32.57
2023-01-25T07:00:37.350Z,23.57
2023-01-25T07:03:05.732Z,22.13
2023-01-25T07:05:34.567Z,23.10
2023-01-25T07:08:03.001Z,25.83
2023-01-25T07:10:33.936Z,26.67
2023-01-25T07:13:02.392Z,25.43
2023-01-25T07:15:31.038Z,23.13
2023-01-25T07:18:08.333Z,27.23
2023-01-25T07:20:43.540Z,25.10
2023-01-25T07:23:11.880Z,29.23
2023-01-25T07:25:46.805Z,30.63
2023-01-25T07:28:16.046Z,29.60
2023-01-25T07:30:45.261Z,33.57
2023-01-25T07:33:14.044Z,28.70
2023-01-25T07:35:42.945Z,28.93
2023-01-25T07:38:12.919Z,31.10
2023-01-25T07:40:42.980Z,31.30
2023-01-25T07:43:12.666Z,29.23
2023-01-25T07:45:45.389Z,24.63
2023-01-25T07:48:13.747Z,27.53
2023-01-25T07:50:42.664Z,37.67
2023-01-25T07:53:11.194Z,26.60
2023-01-25T07:55:40.137Z,30.80
2023-01-25T07:58:09.259Z,31.13
2023-01-25T08:00:40.384Z,31.73
2023-01-25T08:03:10.188Z,28.57
2023-01-25T08:05:40.237Z,29.70
2023-01-25T08:08:08.619Z,26.67
2023-01-25T08:10:37.656Z,25.33
2023-01-25T08:13:06.860Z,29.60
2023-01-25T08:15:35.676Z,21.87
2023-01-25T08:18:05.772Z,26.07
2023-01-25T08:20:34.958Z,24.73
2023-01-25T08:23:03.404Z,24.00
2023-01-25T08:25:32.138Z,31.67
2023-01-25T08:28:00.550Z,27.23
2023-01-25T08:30:29.330Z,26.03
2023-01-25T08:32:57.825Z,30.73
2023-01-25T08:35:27.840Z,29.70
2023-01-25T08:37:56.184Z,35.37
2023-01-25T08:40:24.917Z,29.30
2023-01-25T08:42:53.217Z,25.83
2023-01-25T08:45:22.238Z,26.73
2023-01-25T08:47:50.582Z,28.77
2023-01-25T08:50:19.390Z,21.90
2023-01-25T08:52:49.388Z,30.37
2023-01-25T08:55:18.205Z,30.37
2023-01-25T08:57:46.557Z,20.03
2023-01-25T09:00:16.696Z,30.13
2023-01-25T09:02:45.160Z,35.53
2023-01-25T09:05:13.853Z,24.40
2023-01-25T09:07:42.185Z,29.60
2023-01-25T09:10:13.173Z,26.70
2023-01-25T09:12:41.736Z,29.23
2023-01-25T09:15:11.377Z,27.97
2023-01-25T09:17:39.957Z,26.73
2023-01-25T09:20:10.589Z,22.97
2023-01-25T09:22:40.600Z,31.23
2023-01-25T09:25:10.090Z,31.03
2023-01-25T09:27:39.913Z,25.00
2023-01-25T09:30:18.317Z,31.33
2023-01-25T09:32:50.994Z,23.87
2023-01-25T09:35:19.694Z,27.67
2023-01-25T09:37:53.323Z,27.83
2023-01-25T09:40:23.859Z,29.57
2023-01-25T09:43:06.858Z,28.47
2023-01-25T09:45:37.358Z,29.57
2023-01-25T09:48:23.789Z,27.13
2023-01-25T09:51:19.185Z,37.53
2023-01-25T09:53:51.323Z,30.40
2023-01-25T09:56:24.670Z,26.40
2023-01-25T09:58:59.292Z,32.83
2023-01-25T10:01:38.876Z,32.93
2023-01-25T10:04:15.905Z,23.10
2023-01-25T10:06:59.730Z,31.03
2023-01-25T10:09:37.165Z,33.87
2023-01-25T10:12:14.970Z,30.60
2023-01-25T10:14:44.995Z,31.30
2023-01-25T10:17:28.702Z,30.07
2023-01-25T10:20:11.117Z,29.80
2023-01-25T10:22:45.869Z,29.03
2023-01-25T10:25:37.149Z,30.43
2023-01-25T10:28:18.459Z,36.73
2023-01-25T10:30:58.268Z,37.80
2023-01-25T10:33:29.492Z,31.03
2023-01-25T10:36:00.077Z,28.07
2023-01-25T10:38:33.773Z,25.00
2023-01-25T10:41:06.437Z,33.97
2023-01-25T10:43:35.164Z,30.53
2023-01-25T10:46:05.290Z,38.53
2023-01-25T10:48:37.567Z,30.10
2023-01-25T10:51:06.807Z,28.17
2023-01-25T10:53:39.339Z,27.57
2023-01-25T10:56:20.567Z,32.07
2023-01-25T10:58:52.108Z,33.50
2023-01-25T11:01:29.844Z,31.87
2023-01-25T11:03:59.592Z,30.90
2023-01-25T11:06:34.175Z,27.33
2023-01-25T11:09:03.636Z,26.37
2023-01-25T11:11:36.632Z,26.37
2023-01-25T11:14:17.527Z,28.20
2023-01-25T11:16:48.961Z,27.50
2023-01-25T11:19:28.460Z,24.67
2023-01-25T11:21:59.817Z,27.97
2023-01-25T11:24:30.030Z,36.03
2023-01-25T11:27:18.613Z,30.37
2023-01-25T11:29:48.505Z,30.27
2023-01-25T11:32:25.001Z,28.30
2023-01-25T11:34:53.980Z,32.83
2023-01-25T11:37:46.103Z,29.97
2023-01-25T11:40:22.153Z,31.53
2023-01-25T11:43:01.079Z,26.57
2023-01-25T11:46:05.326Z,33.53
2023-01-25T11:48:51.694Z,34.00
2023-01-25T11:51:27.539Z,36.33
2023-01-25T11:54:09.364Z,31.73
2023-01-25T11:56:51.640Z,27.13
2023-01-25T11:59:33.891Z,28.17
2023-01-25T12:02:20.479Z,27.43
2023-01-25T12:05:09.670Z,36.40
2023-01-25T12:07:56.740Z,30.43
2023-01-25T12:10:34.861Z,24.70
2023-01-25T12:13:09.972Z,27.30
2023-01-25T12:15:54.856Z,30.27
2023-01-25T12:18:43.401Z,33.23
2023-01-25T12:21:31.367Z,29.27
2023-01-25T12:24:20.706Z,36.60
2023-01-25T12:26:58.040Z,33.70
2023-01-25T12:29:30.907Z,30.47
2023-01-25T12:32:06.981Z,31.73
2023-01-25T12:34:38.819Z,35.53
2023-01-25T12:37:18.242Z,34.77
2023-01-25T12:39:50.124Z,30.17
2023-01-25T12:42:22.526Z,38.63
2023-01-25T12:44:57.258Z,26.20
2023-01-25T12:47:34.818Z,29.83
2023-01-25T12:50:14.911Z,28.43
2023-01-25T12:52:49.083Z,28.53
2023-01-25T12:55:19.822Z,27.33
2023-01-25T12:57:55.101Z,32.50
2023-01-25T13:00:27.338Z,26.17
2023-01-25T13:03:26.837Z,28.10
2023-01-25T13:06:04.431Z,27.23
2023-01-25T13:08:44.631Z,26.00
2023-01-25T13:11:17.806Z,31.90
2023-01-25T13:13:46.416Z,29.37
2023-01-25T13:16:32.603Z,33.97
2023-01-25T13:19:01.536Z,33.03
2023-01-25T13:21:42.626Z,32.57
2023-01-25T13:24:21.085Z,27.40
2023-01-25T13:26:52.055Z,37.80
2023-01-25T13:29:57.402Z,29.30
2023-01-25T13:32:56.297Z,27.60
2023-01-25T13:35:33.208Z,30.60
2023-01-25T13:38:20.811Z,31.37
2023-01-25T13:41:14.407Z,35.93
2023-01-25T13:43:46.147Z,34.07
2023-01-25T13:46:18.807Z,37.70
2023-01-25T13:49:02.281Z,35.77
2023-01-25T13:51:35.947Z,32.77
2023-01-25T13:54:04.844Z,34.93
2023-01-25T13:56:37.418Z,31.90
2023-01-25T13:59:06.351Z,37.13
2023-01-25T14:01:37.834Z,37.50
2023-01-25T14:04:06.792Z,35.67
2023-01-25T14:06:38.171Z,39.27
2023-01-25T14:09:21.749Z,41.23
2023-01-25T14:11:56.545Z,40.47
2023-01-25T14:14:27.823Z,44.20
2023-01-25T14:17:16.627Z,44.37
2023-01-25T14:19:48.804Z,38.57
2023-01-25T14:22:24.978Z,40.27
2023-01-25T14:25:11.029Z,42.43
2023-01-25T14:27:46.613Z,42.97
2023-01-25T14:30:22.277Z,37.73
2023-01-25T14:32:53.595Z,39.63
2023-01-25T14:35:43.489Z,36.57
2023-01-25T14:38:30.113Z,36.97
2023-01-25T14:41:03.249Z,34.13
2023-01-25T14:43:34.025Z,40.20
2023-01-25T14:46:02.382Z,39.77
2023-01-25T14:48:42.067Z,37.77
2023-01-25T14:51:19.392Z,39.70
2023-01-25T14:53:52.851Z,43.07
2023-01-25T14:56:33.285Z,42.90
2023-01-25T14:59:05.159Z,43.57
2023-01-25T15:01:38.260Z,42.97
2023-01-25T15:04:12.416Z,38.80
2023-01-25T15:06:48.733Z,44.83
2023-01-25T15:09:34.869Z,41.73
2023-01-25T15:12:06.445Z,44.67
2023-01-25T15:14:49.225Z,34.37
2023-01-25T15:17:44.070Z,36.27
2023-01-25T15:20:41.078Z,36.27
2023-01-25T15:23:26.842Z,38.00
2023-01-25T15:25:57.484Z,40.17
2023-01-25T15:28:28.299Z,44.97
2023-01-25T15:30:59.528Z,46.83
2023-01-25T15:33:30.589Z,43.20
2023-01-25T15:36:00.001Z,41.73
2023-01-25T15:38:28.393Z,36.27
2023-01-25T15:41:01.403Z,45.10
2023-01-25T15:43:30.153Z,47.10
2023-01-25T15:46:01.716Z,44.97
2023-01-25T15:48:31.897Z,46.63
2023-01-25T15:51:00.823Z,48.30
2023-01-25T15:53:29.469Z,38.13
2023-01-25T15:56:02.188Z,47.43
2023-01-25T15:58:33.996Z,47.97
2023-01-25T16:01:04.366Z,47.63
2023-01-25T16:03:32.817Z,47.10
2023-01-25T16:06:03.656Z,40.17
2023-01-25T16:08:35.052Z,44.90
2023-01-25T16:11:03.661Z,42.70
2023-01-25T16:13:31.983Z,38.57
2023-01-25T16:16:00.603Z,38.87
2023-01-25T16:18:30.499Z,42.10
2023-01-25T16:20:59.307Z,44.87
2023-01-25T16:23:27.665Z,46.60
2023-01-25T16:25:56.635Z,39.80
2023-01-25T16:28:25.009Z,41.00
2023-01-25T16:30:53.739Z,38.40
2023-01-25T16:33:24.265Z,46.70
2023-01-25T16:36:05.570Z,40.20
2023-01-25T16:38:35.357Z,42.73
2023-01-25T16:41:03.986Z,45.20
2023-01-25T16:43:42.495Z,48.30
2023-01-25T16:46:17.363Z,43.60
2023-01-25T16:48:45.992Z,42.93
2023-01-25T16:51:21.170Z,43.40
2023-01-25T16:53:51.042Z,44.93
2023-01-25T16:56:20.789Z,43.80
2023-01-25T16:58:49.836Z,42.07
2023-01-25T17:01:20.275Z,44.80
2023-01-25T17:03:48.891Z,43.60
2023-01-25T17:06:21.313Z,42.50
2023-01-25T17:08:50.539Z,45.97
2023-01-25T17:11:19.910Z,42.73
2023-01-25T17:13:50.257Z,47.03
2023-01-25T17:16:19.689Z,44.40
2023-01-25T17:18:48.252Z,46.60
2023-01-25T17:21:19.420Z,47.23
2023-01-25T17:23:48.361Z,42.90
2023-01-25T17:26:19.087Z,49.73
2023-01-25T17:28:48.265Z,50.63
2023-01-25T17:31:18.880Z,49.90
2023-01-25T17:33:47.741Z,51.90
2023-01-25T17:36:17.876Z,50.33
2023-01-25T17:38:46.594Z,49.90
2023-01-25T17:41:17.418Z,48.93
2023-01-25T17:43:45.924Z,50.97
2023-01-25T17:46:15.983Z,51.70
2023-01-25T17:48:44.804Z,49.33
2023-01-25T17:51:13.418Z,53.60
2023-01-25T17:53:43.296Z,54.63
2023-01-25T17:56:13.113Z,48.00
2023-01-25T17:58:42.662Z,51.07
2023-01-25T18:01:14.158Z,56.57
2023-01-25T18:03:43.701Z,55.83
2023-01-25T18:06:14.750Z,56.07
2023-01-25T18:08:46.457Z,54.20
2023-01-25T18:11:18.148Z,52.47
2023-01-25T18:13:48.605Z,56.57
2023-01-25T18:16:18.754Z,59.40
2023-01-25T18:18:47.465Z,54.10
2023-01-25T18:21:22.118Z,61.80
2023-01-25T18:23:53.297Z,57.33
2023-01-25T18:26:24.247Z,54.43
2023-01-25T18:28:55.134Z,58.70
2023-01-25T18:31:24.181Z,51.60
2023-01-25T18:33:52.909Z,53.83
2023-01-25T18:36:22.273Z,56.20
2023-01-25T18:38:52.268Z,47.13
2023-01-25T18:41:21.259Z,51.63
2023-01-25T18:43:50.825Z,52.53
2023-01-25T18:46:19.863Z,54.27
2023-01-25T18:48:48.483Z,52.10
2023-01-25T18:51:18.523Z,51.77
2023-01-25T18:53:48.038Z,54.40
2023-01-25T18:56:21.520Z,56.67
2023-01-25T18:58:52.212Z,51.87
2023-01-25T19:01:22.917Z,62.03
2023-01-25T19:03:52.932Z,62.10
2023-01-25T19:06:23.399Z,53.53
2023-01-25T19:08:54.299Z,64.00
2023-01-25T19:11:26.913Z,64.80
2023-01-25T19:13:56.316Z,63.30
2023-01-25T19:16:26.189Z,77.63
2023-01-25T19:18:56.149Z,71.90
2023-01-25T19:21:27.205Z,75.43
2023-01-25T19:23:59.298Z,72.63
2023-01-25T19:26:30.372Z,70.53
2023-01-25T19:28:59.630Z,66.18
2023-01-25T19:31:32.115Z,68.30
2023-01-25T19:34:02.992Z,63.93
2023-01-25T19:36:36.623Z,72.90
2023-01-25T19:39:10.208Z,73.93
2023-01-25T19:41:45.820Z,72.30
2023-01-25T19:44:18.538Z,71.37
2023-01-25T19:46:50.953Z,67.60
2023-01-25T19:49:22.283Z,76.40
2023-01-25T19:51:53.887Z,75.60
2023-01-25T19:54:27.618Z,70.43
2023-01-25T19:56:59.091Z,73.97
2023-01-25T19:59:28.989Z,71.00
2023-01-25T20:01:58.402Z,75.13
2023-01-25T20:04:27.233Z,77.53
2023-01-25T20:06:56.453Z,80.13
2023-01-25T20:09:28.644Z,77.87
2023-01-25T20:12:00.670Z,77.57
2023-01-25T20:14:29.154Z,75.07
2023-01-25T20:16:58.587Z,74.83
2023-01-25T20:19:28.088Z,75.53
2023-01-25T20:22:00.478Z,74.90
2023-01-25T20:24:29.464Z,68.10
2023-01-25T20:26:59.932Z,70.77
2023-01-25T20:29:28.979Z,70.20
2023-01-25T20:31:58.142Z,70.43
2023-01-25T20:34:28.318Z,68.20
2023-01-25T20:36:57.535Z,73.57
2023-01-25T20:39:26.197Z,67.13
2023-01-25T20:41:56.701Z,68.63
2023-01-25T20:44:28.649Z,61.97
2023-01-25T20:46:58.737Z,68.67
2023-01-25T20:49:27.491Z,76.00
2023-01-25T20:51:56.562Z,72.67
2023-01-25T20:54:25.202Z,72.97
2023-01-25T20:56:54.248Z,81.00
2023-01-25T20:59:23.216Z,79.37
2023-01-25T21:01:55.511Z,69.20
2023-01-25T21:04:24.333Z,71.17
2023-01-25T21:06:53.682Z,72.30
2023-01-25T21:09:23.296Z,70.33
2023-01-25T21:11:52.156Z,73.93
2023-01-25T21:14:21.971Z,77.60
2023-01-25T21:16:50.691Z,80.47
2023-01-25T21:19:20.592Z,95.73
2023-01-25T21:21:49.389Z,93.43
2023-01-25T21:24:18.061Z,86.47
2023-01-25T21:26:46.962Z,92.00
2023-01-25T21:29:15.702Z,92.43
2023-01-25T21:31:44.484Z,85.73
2023-01-25T21:34:12.964Z,91.27
2023-01-25T21:36:43.148Z,86.43
2023-01-25T21:39:11.622Z,81.97
2023-01-25T21:41:40.347Z,78.43
2023-01-25T21:44:26.427Z,82.07
2023-01-25T21:47:23.621Z,94.93
2023-01-25T21:50:03.111Z,86.30
2023-01-25T21:52:36.339Z,81.93
2023-01-25T21:55:05.791Z,75.50
2023-01-25T21:57:34.489Z,80.17
2023-01-25T22:00:04.379Z,79.70
2023-01-25T22:02:33.779Z,90.70
2023-01-25T22:05:02.324Z,81.03
2023-01-25T22:07:33.522Z,80.20
2023-01-25T22:10:03.604Z,90.00
2023-01-25T22:12:32.405Z,82.97
2023-01-25T22:15:01.502Z,88.13
2023-01-25T22:17:30.480Z,78.40
2023-01-25T22:19:58.856Z,71.87
2023-01-25T22:22:28.741Z,79.87
2023-01-25T22:24:57.114Z,72.70
2023-01-25T22:27:38.306Z,75.83
2023-01-25T22:30:08.068Z,71.83
2023-01-25T22:32:36.786Z,77.17
2023-01-25T22:35:05.669Z,81.40
2023-01-25T22:37:37.932Z,86.50
2023-01-25T22:40:08.256Z,70.33
2023-01-25T22:42:38.647Z,78.17
2023-01-25T22:45:08.495Z,81.03
2023-01-25T22:47:37.171Z,71.80
2023-01-25T22:50:06.267Z,74.00
2023-01-25T22:52:34.817Z,75.93
2023-01-25T22:55:03.236Z,69.40
2023-01-25T22:57:31.802Z,73.23
2023-01-25T23:00:01.668Z,76.37
2023-01-25T23:02:30.301Z,73.00
2023-01-25T23:04:58.809Z,74.13
2023-01-25T23:07:27.486Z,73.17
2023-01-25T23:09:55.841Z,73.83
2023-01-25T23:12:24.475Z,75.47
2023-01-25T23:14:55.151Z,74.87
2023-01-25T23:17:42.895Z,67.40
2023-01-25T23:20:13.336Z,75.63
2023-01-25T23:22:42.796Z,70.97
2023-01-25T23:25:12.310Z,70.77
2023-01-25T23:27:40.999Z,73.97
2023-01-25T23:30:11.053Z,78.47
2023-01-25T23:32:49.175Z,70.67
2023-01-25T23:35:18.651Z,77.87
2023-01-25T23:37:48.476Z,73.57
2023-01-25T23:40:17.472Z,66.97
2023-01-25T23:42:46.081Z,62.97
2023-01-25T23:45:14.508Z,65.10
2023-01-25T23:47:44.586Z,63.83
2023-01-25T23:50:13.643Z,71.37
2023-01-25T23:52:42.429Z,72.47
2023-01-25T23:55:12.052Z,71.47
2023-01-25T23:57:40.640Z,79.17
